Jeffrey G. — WDF9488 — position and weather

sailwx.info

Track history (hours):
 
Tides and Currents Weather Stations Pressure Air Temp Water Temp Dewpoint Dewpoint Depression Visibility Wind Speed Wind Dir Waves Ship Positions

Jeffrey G.

Owner: Marquette Transportation Co. LLC, Paducah, KY. More information available from US FCC via Universal Licensing System and Coast Guard Vessel Documentation Center.

Last reported at 2018-Apr-25 23:02 UTC. Time now 2018-Apr-26 03:17 UTC.
Position N 32°44' W 091°04'.

Length 43 m; draft 3.4 m.

Type: Towing. MMSI: 367505670.

Date/timePositionNaut miles runAvg speedWind from/ knotsBaromVisibWave heightAir tempDewpointWater temp
2018-Apr-25 23:02N 32°44' W 091°04'8 4.8
2018-Apr-25 21:19N 32°37' W 091°09'2 5.2
2018-Apr-25 21:00N 32°35' W 091°08'2 4.9
2018-Apr-25 20:30N 32°33' W 091°07'3 5.1
2018-Apr-25 19:58N 32°30' W 091°07'2 4.7
2018-Apr-25 19:30N 32°28' W 091°06'2 5.0
2018-Apr-25 19:00N 32°27' W 091°04'3 5.7
2018-Apr-25 18:30N 32°26' W 091°01'2 4.8
2018-Apr-25 18:00N 32°24' W 090°60'2 4.3
2018-Apr-25 17:30N 32°21' W 090°60'2 4.6
2018-Apr-25 17:01N 32°21' W 090°57'2 4.9
2018-Apr-25 16:30N 32°20' W 090°54'2 4.3
2018-Apr-25 16:01N 32°18' W 090°56'0 0.6
2018-Apr-25 15:31N 32°18' W 090°56'0 0.0
2018-Apr-25 15:00N 32°18' W 090°56'0 0.0
2018-Apr-25 14:31N 32°18' W 090°56'0 0.0
2018-Apr-25 14:01N 32°18' W 090°56'0 0.0
2018-Apr-25 13:30N 32°18' W 090°56'0 0.0
2018-Apr-25 13:01N 32°18' W 090°56'0 0.0
2018-Apr-25 12:31N 32°18' W 090°56'0 0.1
2018-Apr-25 12:00N 32°18' W 090°56'0 0.1
2018-Apr-25 11:30N 32°18' W 090°56'2 3.8
2018-Apr-25 11:00N 32°16' W 090°57'3 5.2
2018-Apr-25 10:30N 32°14' W 090°59'3 5.2
2018-Apr-25 10:00N 32°11' W 090°60'2 4.3
2018-Apr-25 09:30N 32°09' W 090°60'2 4.4
2018-Apr-25 09:00N 32°08' W 091°01'2 4.6
2018-Apr-25 08:31N 32°08' W 091°04'2 3.6
2018-Apr-25 08:00N 32°07' W 091°06'2 4.5
2018-Apr-25 07:30N 32°05' W 091°05'4 5.0
2018-Apr-25 06:45N 32°01' W 091°05'  
2018-Apr-19 18:56N 32°00' W 091°05'4 9.9
2018-Apr-19 18:29N 32°04' W 091°04'4 7.7
2018-Apr-19 18:00N 32°08' W 091°06'4 9.0
2018-Apr-19 17:30N 32°08' W 091°00'510.9
2018-Apr-19 17:00N 32°14' W 090°59'510.5
2018-Apr-19 16:30N 32°18' W 090°55'3 5.2
2018-Apr-19 16:00N 32°20' W 090°55'5 9.3
2018-Apr-19 15:30N 32°22' W 091°00'5 9.3
2018-Apr-19 15:00N 32°26' W 091°02'611.3
2018-Apr-19 14:30N 32°30' W 091°07'510.6
2018-Apr-19 14:00N 32°35' W 091°08'  
Track history (hours):
 
Tides and Currents Weather Stations Pressure Air Temp Water Temp Dewpoint Dewpoint Depression Visibility Wind Speed Wind Dir Waves Ship Positions

Jeffrey G.

Owner: Marquette Transportation Co. LLC, Paducah, KY. More information available from US FCC via Universal Licensing System and Coast Guard Vessel Documentation Center.

Last reported at 2018-Apr-25 23:02 UTC. Time now 2018-Apr-26 03:17 UTC.
Position N 32°44' W 091°04'.

Length 43 m; draft 3.4 m.

Type: Towing. MMSI: 367505670.

Date/timePositionNaut miles runAvg speedWind from/ knotsBaromVisibWave heightAir tempDewpointWater temp
2018-Apr-25 23:02N 32°44' W 091°04'8 4.8
2018-Apr-25 21:19N 32°37' W 091°09'2 5.2
2018-Apr-25 21:00N 32°35' W 091°08'2 4.9
2018-Apr-25 20:30N 32°33' W 091°07'3 5.1
2018-Apr-25 19:58N 32°30' W 091°07'2 4.7
2018-Apr-25 19:30N 32°28' W 091°06'2 5.0
2018-Apr-25 19:00N 32°27' W 091°04'3 5.7
2018-Apr-25 18:30N 32°26' W 091°01'2 4.8
2018-Apr-25 18:00N 32°24' W 090°60'2 4.3
2018-Apr-25 17:30N 32°21' W 090°60'2 4.6
2018-Apr-25 17:01N 32°21' W 090°57'2 4.9
2018-Apr-25 16:30N 32°20' W 090°54'2 4.3
2018-Apr-25 16:01N 32°18' W 090°56'0 0.6
2018-Apr-25 15:31N 32°18' W 090°56'0 0.0
2018-Apr-25 15:00N 32°18' W 090°56'0 0.0
2018-Apr-25 14:31N 32°18' W 090°56'0 0.0
2018-Apr-25 14:01N 32°18' W 090°56'0 0.0
2018-Apr-25 13:30N 32°18' W 090°56'0 0.0
2018-Apr-25 13:01N 32°18' W 090°56'0 0.0
2018-Apr-25 12:31N 32°18' W 090°56'0 0.1
2018-Apr-25 12:00N 32°18' W 090°56'0 0.1
2018-Apr-25 11:30N 32°18' W 090°56'2 3.8
2018-Apr-25 11:00N 32°16' W 090°57'3 5.2
2018-Apr-25 10:30N 32°14' W 090°59'3 5.2
2018-Apr-25 10:00N 32°11' W 090°60'2 4.3
2018-Apr-25 09:30N 32°09' W 090°60'2 4.4
2018-Apr-25 09:00N 32°08' W 091°01'2 4.6
2018-Apr-25 08:31N 32°08' W 091°04'2 3.6
2018-Apr-25 08:00N 32°07' W 091°06'2 4.5
2018-Apr-25 07:30N 32°05' W 091°05'4 5.0
2018-Apr-25 06:45N 32°01' W 091°05'  
2018-Apr-19 18:56N 32°00' W 091°05'4 9.9
2018-Apr-19 18:29N 32°04' W 091°04'4 7.7
2018-Apr-19 18:00N 32°08' W 091°06'4 9.0
2018-Apr-19 17:30N 32°08' W 091°00'510.9
2018-Apr-19 17:00N 32°14' W 090°59'510.5
2018-Apr-19 16:30N 32°18' W 090°55'3 5.2
2018-Apr-19 16:00N 32°20' W 090°55'5 9.3
2018-Apr-19 15:30N 32°22' W 091°00'5 9.3
2018-Apr-19 15:00N 32°26' W 091°02'611.3
2018-Apr-19 14:30N 32°30' W 091°07'510.6
2018-Apr-19 14:00N 32°35' W 091°08'  

Dump ship's entire track history